createdAt,value
2022-10-30T00:01:05.072Z,7.36
2022-10-30T00:03:03.671Z,7.40
2022-10-30T00:05:02.224Z,7.23
2022-10-30T00:07:00.450Z,7.22
2022-10-30T00:08:58.575Z,7.30
2022-10-30T00:10:56.845Z,7.29
2022-10-30T00:12:56.398Z,7.28
2022-10-30T00:14:54.617Z,7.31
2022-10-30T00:16:52.962Z,7.25
2022-10-30T00:18:51.117Z,7.30
2022-10-30T00:20:49.734Z,7.26
2022-10-30T00:22:48.073Z,7.16
2022-10-30T00:24:46.295Z,7.06
2022-10-30T00:26:44.367Z,7.01
2022-10-30T00:28:43.951Z,6.97
2022-10-30T00:30:42.270Z,6.91
2022-10-30T00:32:40.439Z,6.87
2022-10-30T00:34:38.632Z,6.90
2022-10-30T00:36:39.098Z,6.92
2022-10-30T00:38:37.372Z,6.94
2022-10-30T00:40:35.545Z,6.97
2022-10-30T00:42:33.983Z,6.87
2022-10-30T00:44:38.291Z,6.88
2022-10-30T00:46:40.105Z,6.88
2022-10-30T00:48:38.711Z,6.89
2022-10-30T00:50:39.012Z,6.93
2022-10-30T00:52:41.303Z,6.95
2022-10-30T00:54:39.652Z,7.00
2022-10-30T00:56:38.362Z,6.99
2022-10-30T00:58:41.660Z,6.97
2022-10-30T01:00:44.086Z,6.93
2022-10-30T01:02:44.664Z,6.89
2022-10-30T01:04:45.444Z,6.84
2022-10-30T01:06:48.404Z,6.77
2022-10-30T01:08:48.479Z,6.68
2022-10-30T01:10:49.186Z,6.66
2022-10-30T01:12:49.715Z,6.65
2022-10-30T01:14:51.945Z,6.68
2022-10-30T01:17:17.692Z,6.74
2022-10-30T01:19:23.589Z,6.70
2022-10-30T01:21:39.685Z,6.70
2022-10-30T01:23:49.765Z,6.60
2022-10-30T01:25:57.997Z,6.61
2022-10-30T01:28:06.274Z,6.49
2022-10-30T01:30:17.036Z,6.42
2022-10-30T01:32:38.759Z,6.36
2022-10-30T01:34:46.927Z,6.33
2022-10-30T01:36:50.831Z,6.31
2022-10-30T01:38:54.037Z,6.28
2022-10-30T01:40:52.337Z,6.32
2022-10-30T01:42:53.042Z,6.37
2022-10-30T01:44:54.888Z,6.35
2022-10-30T01:47:11.074Z,6.29
2022-10-30T01:49:31.629Z,6.31
2022-10-30T01:51:43.938Z,6.26
2022-10-30T01:53:53.881Z,6.15
2022-10-30T01:55:58.814Z,6.14
2022-10-30T01:58:04.514Z,6.10
2022-10-30T02:00:06.970Z,6.05
2022-10-30T02:02:12.330Z,6.01
2022-10-30T02:04:14.263Z,6.15
2022-10-30T02:06:12.557Z,6.19
2022-10-30T02:08:10.801Z,6.19
2022-10-30T02:10:13.479Z,6.23
2022-10-30T02:12:12.211Z,6.21
2022-10-30T02:14:11.497Z,6.06
2022-10-30T02:16:11.255Z,6.04
2022-10-30T02:18:09.675Z,6.02
2022-10-30T02:20:16.087Z,5.94
2022-10-30T02:22:14.395Z,5.96
2022-10-30T02:24:12.783Z,6.05
2022-10-30T02:26:11.066Z,6.09
2022-10-30T02:28:09.280Z,6.10
2022-10-30T02:30:09.497Z,6.17
2022-10-30T02:32:07.749Z,6.15
2022-10-30T02:34:06.679Z,6.14
2022-10-30T02:36:07.260Z,6.08
2022-10-30T02:38:05.348Z,6.03
2022-10-30T02:40:03.857Z,5.98
2022-10-30T02:42:02.633Z,5.94
2022-10-30T02:44:01.776Z,5.92
2022-10-30T02:46:01.180Z,5.91
2022-10-30T02:48:00.949Z,6.02
2022-10-30T02:49:59.722Z,6.07
2022-10-30T02:51:59.388Z,6.07
2022-10-30T02:53:57.677Z,6.09
2022-10-30T02:55:55.961Z,6.04
2022-10-30T02:57:55.409Z,5.99
2022-10-30T02:59:53.959Z,5.90
2022-10-30T03:01:52.303Z,5.82
2022-10-30T03:03:50.853Z,5.82
2022-10-30T03:05:49.137Z,5.80
2022-10-30T03:07:49.305Z,5.75
2022-10-30T03:09:48.545Z,5.74
2022-10-30T03:11:46.837Z,5.79
2022-10-30T03:13:47.520Z,5.84
2022-10-30T03:15:45.679Z,5.83
2022-10-30T03:17:44.315Z,5.79
2022-10-30T03:19:42.589Z,5.84
2022-10-30T03:21:41.012Z,5.91
2022-10-30T03:23:40.681Z,5.86
2022-10-30T03:25:39.171Z,5.84
2022-10-30T03:27:37.458Z,5.86
2022-10-30T03:29:36.785Z,5.85
2022-10-30T03:31:36.317Z,5.82
2022-10-30T03:33:53.660Z,5.76
2022-10-30T03:35:51.803Z,5.87
2022-10-30T03:37:50.091Z,5.86
2022-10-30T03:39:51.755Z,5.87
2022-10-30T03:41:52.725Z,5.81
2022-10-30T03:43:51.062Z,5.83
2022-10-30T03:45:50.474Z,5.76
2022-10-30T03:47:49.050Z,5.79
2022-10-30T03:49:47.243Z,5.79
2022-10-30T03:51:49.812Z,5.73
2022-10-30T03:53:48.189Z,5.67
2022-10-30T03:55:47.730Z,5.66
2022-10-30T03:57:46.118Z,5.71
2022-10-30T04:00:07.618Z,5.67
2022-10-30T04:02:48.590Z,5.69
2022-10-30T04:05:09.064Z,5.69
2022-10-30T04:07:27.463Z,5.67
2022-10-30T04:09:46.085Z,5.60
2022-10-30T04:12:06.288Z,5.55
2022-10-30T04:14:24.879Z,5.53
2022-10-30T04:16:43.353Z,5.47
2022-10-30T04:19:02.043Z,5.47
2022-10-30T04:21:20.538Z,5.57
2022-10-30T04:23:39.591Z,5.60
2022-10-30T04:25:58.351Z,5.64
2022-10-30T04:28:18.536Z,5.68
2022-10-30T04:30:39.615Z,5.65
2022-10-30T04:32:59.470Z,5.61
2022-10-30T04:35:19.763Z,5.57
2022-10-30T04:37:38.631Z,5.49
2022-10-30T04:39:57.247Z,5.45
2022-10-30T04:42:18.208Z,5.38
2022-10-30T04:44:38.134Z,5.42
2022-10-30T04:46:56.661Z,5.45
2022-10-30T04:49:15.655Z,5.48
2022-10-30T04:51:34.306Z,5.49
2022-10-30T04:53:54.184Z,5.43
2022-10-30T04:56:12.850Z,5.40
2022-10-30T04:58:31.356Z,5.36
2022-10-30T05:01:01.957Z,5.38
2022-10-30T05:03:24.240Z,5.37
2022-10-30T05:05:44.549Z,5.35
2022-10-30T05:08:03.303Z,5.36
2022-10-30T05:10:21.924Z,5.47
2022-10-30T05:12:40.586Z,5.56
2022-10-30T05:14:59.126Z,5.63
2022-10-30T05:17:19.254Z,5.70
2022-10-30T05:19:37.902Z,5.72
2022-10-30T05:21:57.235Z,5.80
2022-10-30T05:24:15.861Z,5.89
2022-10-30T05:26:35.786Z,6.02
2022-10-30T05:28:54.427Z,6.10
2022-10-30T05:31:12.889Z,6.19
2022-10-30T05:33:51.758Z,6.40
2022-10-30T05:36:11.186Z,6.75
2022-10-30T05:38:29.762Z,7.10
2022-10-30T05:40:48.398Z,7.77
2022-10-30T05:43:07.480Z,8.63
2022-10-30T05:45:27.734Z,9.54
2022-10-30T05:47:56.554Z,10.81
2022-10-30T05:50:16.884Z,11.24
2022-10-30T05:52:46.957Z,11.99
2022-10-30T05:55:08.237Z,12.55
2022-10-30T05:57:41.134Z,13.16
2022-10-30T05:59:59.995Z,13.45
2022-10-30T06:02:18.889Z,13.75
2022-10-30T06:04:37.730Z,14.17
2022-10-30T06:07:02.590Z,14.02
2022-10-30T06:09:21.340Z,14.53
2022-10-30T06:11:54.347Z,14.69
2022-10-30T06:14:20.020Z,14.69
2022-10-30T06:16:22.906Z,14.16
2022-10-30T06:18:41.313Z,14.08
2022-10-30T06:20:42.549Z,14.07
2022-10-30T06:23:17.577Z,15.03
2022-10-30T06:25:39.449Z,15.97
2022-10-30T06:28:00.304Z,15.63
2022-10-30T06:30:00.612Z,15.57
2022-10-30T06:32:00.856Z,15.66
2022-10-30T06:34:03.476Z,15.60
2022-10-30T06:36:03.796Z,15.17
2022-10-30T06:38:02.041Z,15.14
2022-10-30T06:40:03.551Z,15.98
2022-10-30T06:42:20.567Z,15.58
2022-10-30T06:44:42.313Z,15.25
2022-10-30T06:46:40.583Z,15.25
2022-10-30T06:48:39.987Z,15.35
2022-10-30T06:50:38.293Z,15.32
2022-10-30T06:52:36.456Z,15.35
2022-10-30T06:54:35.126Z,15.17
2022-10-30T06:56:53.421Z,14.30
2022-10-30T06:59:10.069Z,13.19
2022-10-30T07:01:17.827Z,12.67
2022-10-30T07:03:42.502Z,12.40
2022-10-30T07:05:40.687Z,11.75
2022-10-30T07:07:38.906Z,11.86
2022-10-30T07:09:39.282Z,12.13
2022-10-30T07:11:37.535Z,12.42
2022-10-30T07:13:53.026Z,12.16
2022-10-30T07:16:17.236Z,12.17
2022-10-30T07:18:18.595Z,12.68
2022-10-30T07:20:17.557Z,13.46
2022-10-30T07:22:16.017Z,13.56
2022-10-30T07:24:18.370Z,13.74
2022-10-30T07:26:26.015Z,13.58
2022-10-30T07:28:26.316Z,13.54
2022-10-30T07:30:48.940Z,13.76
2022-10-30T07:33:00.153Z,14.34
2022-10-30T07:35:19.031Z,14.92
2022-10-30T07:37:30.655Z,16.07
2022-10-30T07:39:48.298Z,17.59
2022-10-30T07:42:06.560Z,19.10
2022-10-30T07:44:18.773Z,20.23
2022-10-30T07:46:21.468Z,20.55
2022-10-30T07:48:46.091Z,21.79
2022-10-30T07:51:08.139Z,21.77
2022-10-30T07:53:06.324Z,20.96
2022-10-30T07:55:05.811Z,21.27
2022-10-30T07:57:09.781Z,20.68
2022-10-30T07:59:37.535Z,21.44
2022-10-30T08:02:12.449Z,22.21
2022-10-30T08:04:33.625Z,22.61
2022-10-30T08:06:41.573Z,22.97
2022-10-30T08:08:43.199Z,22.57
2022-10-30T08:10:53.278Z,21.96
2022-10-30T08:12:51.542Z,22.17
2022-10-30T08:14:49.735Z,23.58
2022-10-30T08:16:48.020Z,23.88
2022-10-30T08:18:48.706Z,24.01
2022-10-30T08:20:53.659Z,23.90
2022-10-30T08:22:55.534Z,22.73
2022-10-30T08:24:55.807Z,24.39
2022-10-30T08:26:58.369Z,24.80
2022-10-30T08:28:58.186Z,24.69
2022-10-30T08:30:59.819Z,24.78
2022-10-30T08:33:18.031Z,24.63
2022-10-30T08:35:30.270Z,23.42
2022-10-30T08:37:33.557Z,23.59
2022-10-30T08:39:32.480Z,23.18
2022-10-30T08:41:37.987Z,22.20
2022-10-30T08:43:39.098Z,23.61
2022-10-30T08:45:37.632Z,23.66
2022-10-30T08:47:41.340Z,23.43
2022-10-30T08:49:39.737Z,22.90
2022-10-30T08:51:39.170Z,22.02
2022-10-30T08:53:39.338Z,23.65
2022-10-30T08:55:43.715Z,23.38
2022-10-30T08:57:51.105Z,24.22
2022-10-30T08:59:49.275Z,25.32
2022-10-30T09:02:08.281Z,25.94
2022-10-30T09:04:28.354Z,26.36
2022-10-30T09:06:51.300Z,25.22
2022-10-30T09:08:55.724Z,24.33
2022-10-30T09:11:12.053Z,25.10
2022-10-30T09:13:11.087Z,25.74
2022-10-30T09:15:10.235Z,25.72
2022-10-30T09:17:20.351Z,26.23
2022-10-30T09:19:21.691Z,25.10
2022-10-30T09:21:20.876Z,25.20
2022-10-30T09:23:23.788Z,25.22
2022-10-30T09:25:28.849Z,25.87
2022-10-30T09:27:53.514Z,26.83
2022-10-30T09:29:54.887Z,27.21
2022-10-30T09:31:57.528Z,26.11
2022-10-30T09:33:57.526Z,26.19
2022-10-30T09:36:32.347Z,26.35
2022-10-30T09:38:32.581Z,26.62
2022-10-30T09:40:43.217Z,26.79
2022-10-30T09:42:49.797Z,26.72
2022-10-30T09:45:27.501Z,26.65
2022-10-30T09:47:34.360Z,27.12
2022-10-30T09:49:47.487Z,28.05
2022-10-30T09:52:07.286Z,28.32
2022-10-30T09:54:20.686Z,29.24
2022-10-30T09:56:31.140Z,29.29
2022-10-30T09:58:38.876Z,28.46
2022-10-30T10:00:45.408Z,27.92
2022-10-30T10:03:09.518Z,28.50
2022-10-30T10:05:25.852Z,28.29
2022-10-30T10:07:46.180Z,28.96
2022-10-30T10:10:18.513Z,28.58
2022-10-30T10:12:34.341Z,29.00
2022-10-30T10:14:36.411Z,29.30
2022-10-30T10:16:37.824Z,29.45
2022-10-30T10:18:47.498Z,29.44
2022-10-30T10:20:50.183Z,29.69
2022-10-30T10:22:53.813Z,30.02
2022-10-30T10:24:52.537Z,29.57
2022-10-30T10:26:58.264Z,29.65
2022-10-30T10:29:13.699Z,29.55
2022-10-30T10:31:42.251Z,29.39
2022-10-30T10:34:00.911Z,29.26
2022-10-30T10:36:11.243Z,28.47
2022-10-30T10:38:19.256Z,29.61
2022-10-30T10:40:27.915Z,28.60
2022-10-30T10:42:37.659Z,28.91
2022-10-30T10:44:49.472Z,27.16
2022-10-30T10:47:06.884Z,25.57
2022-10-30T10:49:22.523Z,23.97
2022-10-30T10:51:24.677Z,23.07
2022-10-30T10:53:29.002Z,22.35
2022-10-30T10:55:29.923Z,22.00
2022-10-30T10:57:33.669Z,21.90
2022-10-30T10:59:36.101Z,21.64
2022-10-30T11:01:39.431Z,21.53
2022-10-30T11:04:04.258Z,21.40
2022-10-30T11:06:21.759Z,21.39
2022-10-30T11:08:23.869Z,21.43
2022-10-30T11:10:23.815Z,21.40
2022-10-30T11:12:28.557Z,21.28
2022-10-30T11:14:31.864Z,21.18
2022-10-30T11:16:40.006Z,21.19
2022-10-30T11:18:38.539Z,21.15
2022-10-30T11:20:43.007Z,21.16
2022-10-30T11:22:47.469Z,21.20
2022-10-30T11:24:45.730Z,21.20
2022-10-30T11:26:44.088Z,21.20
2022-10-30T11:28:46.725Z,21.32
2022-10-30T11:30:46.209Z,21.38
2022-10-30T11:34:44.094Z,21.42
2022-10-30T11:36:42.389Z,21.16
2022-10-30T11:38:40.671Z,21.28
2022-10-30T11:40:41.101Z,21.29
2022-10-30T11:42:40.869Z,21.31
2022-10-30T11:44:42.472Z,21.30
2022-10-30T11:46:43.189Z,21.30
2022-10-30T11:48:45.805Z,21.10
2022-10-30T11:50:49.092Z,21.07
2022-10-30T11:52:49.038Z,20.96
2022-10-30T11:54:50.325Z,21.11
2022-10-30T11:56:50.411Z,21.25
2022-10-30T11:58:53.816Z,21.33
2022-10-30T12:01:02.194Z,21.30
2022-10-30T12:03:03.927Z,21.26
2022-10-30T12:05:03.701Z,21.18
2022-10-30T12:07:21.300Z,21.12
2022-10-30T12:09:22.610Z,21.07
2022-10-30T12:11:20.999Z,21.14
2022-10-30T12:13:22.221Z,21.18
2022-10-30T12:15:22.719Z,21.23
2022-10-30T12:17:23.079Z,21.23
2022-10-30T12:19:25.294Z,21.20
2022-10-30T12:21:23.633Z,21.21
2022-10-30T12:23:25.912Z,21.21
2022-10-30T12:25:27.859Z,21.09
2022-10-30T12:27:26.823Z,21.06
2022-10-30T12:29:48.075Z,20.99
2022-10-30T12:31:56.034Z,21.07
2022-10-30T12:34:04.807Z,21.11
2022-10-30T12:36:11.284Z,21.06
2022-10-30T12:38:18.177Z,21.10
2022-10-30T12:40:20.147Z,21.06
2022-10-30T12:42:23.150Z,21.06
2022-10-30T12:44:26.477Z,21.07
2022-10-30T12:46:34.429Z,21.22
2022-10-30T12:48:38.006Z,21.32
2022-10-30T12:50:43.884Z,21.43
2022-10-30T12:52:48.116Z,21.62
2022-10-30T12:54:53.430Z,21.81
2022-10-30T12:56:57.118Z,22.14
2022-10-30T12:59:10.992Z,22.35
2022-10-30T13:01:18.818Z,22.47
2022-10-30T13:03:29.587Z,22.57
2022-10-30T13:05:34.574Z,22.71
2022-10-30T13:07:39.885Z,22.90
2022-10-30T13:09:44.878Z,22.98
2022-10-30T13:11:50.504Z,22.91
2022-10-30T13:15:51.780Z,23.08
2022-10-30T13:17:50.774Z,22.96
2022-10-30T13:19:51.178Z,22.74
2022-10-30T13:21:57.417Z,22.59
2022-10-30T13:24:00.154Z,22.58
2022-10-30T13:26:09.887Z,22.52
2022-10-30T13:28:18.175Z,22.60
2022-10-30T13:30:20.541Z,22.55
2022-10-30T13:32:34.361Z,22.58
2022-10-30T13:34:41.244Z,22.52
2022-10-30T13:36:48.732Z,22.49
2022-10-30T13:38:57.208Z,22.39
2022-10-30T13:41:08.095Z,22.18
2022-10-30T13:43:19.500Z,22.10
2022-10-30T13:45:55.714Z,21.96
2022-10-30T13:48:03.307Z,21.95
2022-10-30T13:50:18.936Z,21.94
2022-10-30T13:52:19.156Z,21.84
2022-10-30T13:54:22.338Z,21.69
2022-10-30T13:56:24.189Z,21.66
2022-10-30T13:58:30.178Z,21.53
2022-10-30T14:00:37.218Z,21.27
2022-10-30T14:02:58.335Z,21.20
2022-10-30T14:05:02.819Z,21.15
2022-10-30T14:07:18.641Z,21.10
2022-10-30T14:09:27.590Z,21.10
2022-10-30T14:11:27.340Z,21.04
2022-10-30T14:13:27.910Z,20.89
2022-10-30T14:15:34.951Z,20.81
2022-10-30T14:17:38.411Z,20.77
2022-10-30T14:20:20.957Z,20.61
2022-10-30T14:22:25.903Z,20.46
2022-10-30T14:26:29.518Z,20.34
2022-10-30T14:28:27.867Z,20.37
2022-10-30T14:30:29.033Z,20.25
2022-10-30T14:32:49.221Z,20.16
2022-10-30T14:34:59.039Z,20.11
2022-10-30T14:36:57.194Z,20.01
2022-10-30T14:39:30.232Z,19.80
2022-10-30T14:41:41.965Z,19.70
2022-10-30T14:43:51.836Z,19.74
2022-10-30T14:45:57.661Z,19.63
2022-10-30T14:47:59.425Z,19.63
2022-10-30T14:50:02.838Z,19.56
2022-10-30T14:52:18.703Z,19.48
2022-10-30T14:54:27.838Z,19.38
2022-10-30T14:56:36.704Z,19.29
2022-10-30T14:58:36.727Z,19.17
2022-10-30T15:00:43.157Z,19.19
2022-10-30T15:02:50.263Z,19.23
2022-10-30T15:05:13.895Z,19.25
2022-10-30T15:07:23.882Z,19.16
2022-10-30T15:09:49.151Z,19.12
2022-10-30T15:12:08.529Z,18.99
2022-10-30T15:14:21.265Z,18.91
2022-10-30T15:16:27.713Z,18.86
2022-10-30T15:18:30.370Z,18.77
2022-10-30T15:20:33.459Z,18.72
2022-10-30T15:22:34.067Z,18.73
2022-10-30T15:24:35.324Z,18.70
2022-10-30T15:26:37.288Z,18.62
2022-10-30T15:28:37.809Z,18.65
2022-10-30T15:30:36.594Z,18.58
2022-10-30T15:32:42.343Z,18.52
2022-10-30T15:34:40.650Z,18.44
2022-10-30T15:36:43.113Z,18.42
2022-10-30T15:38:41.458Z,18.36
2022-10-30T15:40:41.689Z,18.29
2022-10-30T15:42:45.013Z,18.20
2022-10-30T15:44:46.620Z,18.11
2022-10-30T15:46:46.874Z,18.00
2022-10-30T15:48:48.666Z,17.89
2022-10-30T15:50:56.313Z,17.90
2022-10-30T15:52:55.269Z,17.89
2022-10-30T15:54:57.972Z,17.87
2022-10-30T15:57:42.783Z,17.86
2022-10-30T15:59:25.314Z,17.73
2022-10-30T16:01:27.871Z,17.71
2022-10-30T16:03:26.745Z,17.65
2022-10-30T16:05:26.131Z,17.56
2022-10-30T16:07:26.046Z,17.49
2022-10-30T16:09:25.685Z,17.42
2022-10-30T16:11:25.816Z,17.42
2022-10-30T16:13:31.132Z,17.39
2022-10-30T16:15:31.170Z,17.35
2022-10-30T16:17:29.880Z,17.22
2022-10-30T16:19:31.445Z,17.20
2022-10-30T16:21:31.207Z,17.12
2022-10-30T16:23:31.257Z,17.05
2022-10-30T16:25:32.776Z,17.03
2022-10-30T16:27:34.090Z,16.99
2022-10-30T16:29:35.332Z,16.93
2022-10-30T16:31:38.252Z,16.86
2022-10-30T16:33:41.198Z,16.84
2022-10-30T16:35:39.836Z,16.87
2022-10-30T16:37:40.799Z,16.80
2022-10-30T16:39:40.149Z,16.75
2022-10-30T16:41:38.373Z,16.71
2022-10-30T16:43:40.161Z,16.66
2022-10-30T16:45:50.768Z,16.63
2022-10-30T16:47:55.080Z,16.59
2022-10-30T16:49:57.365Z,16.61
2022-10-30T16:52:01.309Z,16.59
2022-10-30T16:53:59.677Z,16.55
2022-10-30T16:55:59.801Z,16.54
2022-10-30T16:58:04.222Z,16.50
2022-10-30T17:00:06.305Z,16.42
2022-10-30T17:02:24.307Z,16.29
2022-10-30T17:04:22.679Z,16.47
2022-10-30T17:06:38.813Z,16.34
2022-10-30T17:08:44.581Z,16.24
2022-10-30T17:10:46.880Z,16.23
2022-10-30T17:12:45.852Z,16.22
2022-10-30T17:14:58.286Z,16.23
2022-10-30T17:17:00.464Z,16.20
2022-10-30T17:19:02.171Z,16.12
2022-10-30T17:21:08.252Z,16.10
2022-10-30T17:23:14.541Z,16.04
2022-10-30T17:25:18.507Z,15.96
2022-10-30T17:27:46.828Z,15.93
2022-10-30T17:29:46.606Z,16.05
2022-10-30T17:31:45.226Z,16.04
2022-10-30T17:33:44.067Z,16.23
2022-10-30T17:35:44.322Z,16.20
2022-10-30T17:37:43.565Z,16.14
2022-10-30T17:39:42.018Z,16.20
2022-10-30T17:41:40.922Z,16.13
2022-10-30T17:43:50.311Z,16.38
2022-10-30T17:45:49.354Z,16.31
2022-10-30T17:47:48.230Z,16.50
2022-10-30T17:49:47.345Z,16.40
2022-10-30T17:53:49.015Z,16.16
2022-10-30T17:55:53.077Z,16.00
2022-10-30T17:57:54.564Z,15.89
2022-10-30T17:59:52.999Z,15.76
2022-10-30T18:01:51.506Z,15.62
2022-10-30T18:03:50.105Z,15.60
2022-10-30T18:05:48.859Z,15.51
2022-10-30T18:09:51.637Z,15.39
2022-10-30T18:11:49.841Z,15.38
2022-10-30T18:13:49.107Z,15.32
2022-10-30T18:15:53.774Z,15.33
2022-10-30T18:17:52.009Z,15.33
2022-10-30T18:19:52.827Z,15.26
2022-10-30T18:21:52.011Z,15.16
2022-10-30T18:23:53.397Z,15.13
2022-10-30T18:25:52.383Z,15.14
2022-10-30T18:27:50.699Z,15.12
2022-10-30T18:29:49.407Z,15.08
2022-10-30T18:31:47.807Z,15.09
2022-10-30T18:33:46.506Z,15.02
2022-10-30T18:35:44.988Z,14.99
2022-10-30T18:37:43.247Z,14.91
2022-10-30T18:39:42.917Z,14.78
2022-10-30T18:41:43.782Z,14.72
2022-10-30T18:43:45.642Z,14.77
2022-10-30T18:45:45.667Z,14.71
2022-10-30T18:47:43.813Z,14.74
2022-10-30T18:49:42.115Z,14.74
2022-10-30T18:51:40.925Z,14.69
2022-10-30T18:53:39.054Z,14.80
2022-10-30T18:55:40.559Z,14.79
2022-10-30T18:57:38.782Z,14.71
2022-10-30T18:59:38.721Z,14.63
2022-10-30T19:01:37.661Z,14.61
2022-10-30T19:03:35.991Z,14.50
2022-10-30T19:05:35.873Z,14.39
2022-10-30T19:07:38.430Z,14.29
2022-10-30T19:09:37.159Z,14.21
2022-10-30T19:11:39.444Z,14.20
2022-10-30T19:13:40.281Z,14.32
2022-10-30T19:15:43.392Z,14.31
2022-10-30T19:17:41.802Z,14.21
2022-10-30T19:19:40.264Z,14.10
2022-10-30T19:21:38.525Z,14.02
2022-10-30T19:23:36.748Z,13.99
2022-10-30T19:25:36.871Z,13.95
2022-10-30T19:27:36.416Z,13.93
2022-10-30T19:29:34.677Z,13.84
2022-10-30T19:31:32.863Z,13.82
2022-10-30T19:33:31.127Z,13.82
2022-10-30T19:35:29.846Z,13.88
2022-10-30T19:37:28.179Z,13.99
2022-10-30T19:39:28.415Z,14.04
2022-10-30T19:41:27.585Z,14.09
2022-10-30T19:43:27.351Z,14.12
2022-10-30T19:45:28.304Z,14.18
2022-10-30T19:47:26.737Z,14.25
2022-10-30T19:49:25.382Z,14.22
2022-10-30T19:51:24.080Z,14.26
2022-10-30T19:53:24.407Z,14.25
2022-10-30T19:55:23.882Z,14.24
2022-10-30T19:57:24.165Z,14.24
2022-10-30T19:59:23.825Z,14.17
2022-10-30T20:01:22.397Z,14.11
2022-10-30T20:03:21.828Z,14.13
2022-10-30T20:05:21.861Z,14.05
2022-10-30T20:07:20.350Z,14.03
2022-10-30T20:09:18.651Z,13.92
2022-10-30T20:11:16.960Z,13.81
2022-10-30T20:13:15.767Z,13.72
2022-10-30T20:15:23.726Z,13.72
2022-10-30T20:17:22.300Z,13.73
2022-10-30T20:19:29.923Z,13.72
2022-10-30T20:21:32.414Z,13.66
2022-10-30T20:23:31.053Z,13.65
2022-10-30T20:25:29.439Z,13.61
2022-10-30T20:27:27.932Z,13.62
2022-10-30T20:29:26.612Z,13.54
2022-10-30T20:31:26.333Z,13.50
2022-10-30T20:33:25.823Z,13.40
2022-10-30T20:35:24.139Z,13.34
2022-10-30T20:37:23.742Z,13.33
2022-10-30T20:39:21.858Z,13.29
2022-10-30T20:41:23.070Z,13.31
2022-10-30T20:43:23.180Z,13.29
2022-10-30T20:45:24.294Z,13.22
2022-10-30T20:47:24.116Z,13.17
2022-10-30T20:49:22.477Z,13.12
2022-10-30T20:51:21.579Z,13.11
2022-10-30T20:53:19.847Z,13.14
2022-10-30T20:55:18.667Z,13.12
2022-10-30T20:57:17.395Z,13.19
2022-10-30T20:59:15.670Z,13.21
2022-10-30T21:01:14.194Z,13.25
2022-10-30T21:03:15.562Z,13.26
2022-10-30T21:05:38.190Z,13.30
2022-10-30T21:07:32.820Z,13.23
2022-10-30T21:09:30.972Z,13.15
2022-10-30T21:11:29.288Z,13.05
2022-10-30T21:13:27.751Z,13.13
2022-10-30T21:15:26.285Z,13.10
2022-10-30T21:17:24.511Z,13.06
2022-10-30T21:19:24.419Z,12.99
2022-10-30T21:21:25.818Z,12.91
2022-10-30T21:23:24.439Z,12.89
2022-10-30T21:25:22.807Z,12.85
2022-10-30T21:27:20.973Z,12.82
2022-10-30T21:29:20.724Z,12.79
2022-10-30T21:31:18.863Z,12.86
2022-10-30T21:33:17.115Z,13.10
2022-10-30T21:35:16.927Z,13.16
2022-10-30T21:37:15.159Z,13.12
2022-10-30T21:39:18.080Z,13.11
2022-10-30T21:41:19.042Z,13.09
2022-10-30T21:43:19.854Z,13.08
2022-10-30T21:45:18.357Z,12.99
2022-10-30T21:47:19.027Z,12.95
2022-10-30T21:49:18.045Z,12.93
2022-10-30T21:51:19.995Z,12.95
2022-10-30T21:53:18.271Z,12.94
2022-10-30T21:55:17.735Z,12.91
2022-10-30T21:57:19.039Z,12.88
2022-10-30T21:59:18.170Z,12.96
2022-10-30T22:01:19.058Z,13.03
2022-10-30T22:03:17.441Z,13.03
2022-10-30T22:05:15.605Z,13.04
2022-10-30T22:07:18.065Z,13.16
2022-10-30T22:09:20.830Z,13.14
2022-10-30T22:11:22.784Z,13.09
2022-10-30T22:13:23.402Z,12.99
2022-10-30T22:15:21.585Z,13.06
2022-10-30T22:17:19.863Z,13.73
2022-10-30T22:19:18.317Z,13.60
2022-10-30T22:21:16.454Z,13.41
2022-10-30T22:23:16.172Z,13.30
2022-10-30T22:25:14.482Z,13.26
2022-10-30T22:27:12.825Z,13.17
2022-10-30T22:29:12.741Z,13.06
2022-10-30T22:31:13.199Z,13.01
2022-10-30T22:33:11.498Z,12.98
2022-10-30T22:35:10.227Z,12.87
2022-10-30T22:37:09.134Z,12.78
2022-10-30T22:39:12.366Z,12.73
2022-10-30T22:41:12.785Z,12.77
2022-10-30T22:43:13.578Z,12.83
2022-10-30T22:45:12.180Z,12.86
2022-10-30T22:47:10.199Z,12.79
2022-10-30T22:49:11.173Z,12.78
2022-10-30T22:51:15.101Z,12.75
2022-10-30T22:53:17.166Z,12.58
2022-10-30T22:55:17.014Z,12.48
2022-10-30T22:57:15.276Z,12.46
2022-10-30T22:59:14.763Z,12.37
2022-10-30T23:01:17.700Z,12.42
2022-10-30T23:03:16.180Z,12.58
2022-10-30T23:05:14.715Z,12.78
2022-10-30T23:07:12.990Z,12.85
2022-10-30T23:09:17.524Z,12.96
2022-10-30T23:11:17.068Z,13.04
2022-10-30T23:13:15.116Z,12.98
2022-10-30T23:15:13.440Z,13.07
2022-10-30T23:17:11.559Z,13.12
2022-10-30T23:19:10.604Z,13.08
2022-10-30T23:21:11.466Z,13.04
2022-10-30T23:23:09.706Z,12.97
2022-10-30T23:25:08.304Z,12.88
2022-10-30T23:27:08.003Z,12.82
2022-10-30T23:29:06.782Z,12.64
2022-10-30T23:31:05.924Z,12.48
2022-10-30T23:33:04.169Z,12.39
2022-10-30T23:35:02.515Z,12.33
2022-10-30T23:37:02.144Z,12.33
2022-10-30T23:39:02.215Z,12.27
2022-10-30T23:41:00.613Z,12.32
2022-10-30T23:43:00.480Z,12.30
2022-10-30T23:44:59.063Z,12.28
2022-10-30T23:46:57.848Z,12.16
2022-10-30T23:48:56.458Z,12.14
2022-10-30T23:50:54.684Z,12.14
2022-10-30T23:52:52.954Z,12.15
2022-10-30T23:54:51.298Z,12.17
2022-10-30T23:56:49.370Z,12.16
2022-10-30T23:58:50.690Z,12.14
